Time;durP1;ratioP1;P1;durP2;ratioP2;P2;SDS_P1;SDS_P2;PMS_P1;PMS_P2;Temp;Humidity;BMP_temperature;BMP_pressure;BME280_temperature;BME280_humidity;BME280_pressure;Samples;Min_cycle;Max_cycle;Signal;HPM_P1;HPM_P2
2020/12/06 00:01:07;;;;;;;14.63;12.17;;;4.80;99.90;;;;;;5017893;28;20506;-74
2020/12/06 00:03:35;;;;;;;15.57;12.63;;;4.80;99.90;;;;;;5016122;28;20239;-74
2020/12/06 00:06:01;;;;;;;16.47;11.97;;;4.80;99.90;;;;;;5012618;28;21026;-74
2020/12/06 00:08:27;;;;;;;18.97;11.50;;;4.90;99.90;;;;;;5012464;28;20458;-73
2020/12/06 00:10:53;;;;;;;16.10;12.33;;;4.90;99.90;;;;;;5013887;28;20483;-73
2020/12/06 00:13:18;;;;;;;14.57;11.30;;;4.90;99.90;;;;;;5013768;28;20248;-73
2020/12/06 00:15:44;;;;;;;15.80;12.03;;;4.90;99.90;;;;;;5009640;28;20255;-73
2020/12/06 00:18:09;;;;;;;15.70;12.40;;;4.90;99.90;;;;;;5012448;28;20185;-74
2020/12/06 00:20:35;;;;;;;15.97;12.50;;;4.90;99.90;;;;;;5011663;28;20219;-73
2020/12/06 00:23:00;;;;;;;17.93;13.13;;;4.90;99.90;;;;;;5020637;28;20226;-74
2020/12/06 00:25:27;;;;;;;14.67;11.30;;;4.80;99.90;;;;;;5012784;28;20200;-74
2020/12/06 00:27:52;;;;;;;17.47;13.37;;;4.80;99.90;;;;;;5012925;28;20172;-73
2020/12/06 00:30:18;;;;;;;15.13;12.20;;;4.80;99.90;;;;;;5013132;28;20449;-74
2020/12/06 00:32:43;;;;;;;15.43;13.00;;;4.70;99.90;;;;;;5012578;28;20600;-73
2020/12/06 00:35:09;;;;;;;16.40;12.63;;;4.70;99.90;;;;;;5012872;28;20621;-73
2020/12/06 00:37:37;;;;;;;16.10;11.97;;;4.70;99.90;;;;;;5027473;28;20204;-73
2020/12/06 00:40:06;;;;;;;16.37;12.40;;;4.70;99.90;;;;;;5031701;28;20828;-73
2020/12/06 00:42:32;;;;;;;13.53;12.13;;;4.50;99.90;;;;;;5032148;28;20460;-74
2020/12/06 00:44:58;;;;;;;16.83;13.03;;;4.50;99.90;;;;;;5014422;28;20421;-74
2020/12/06 00:47:23;;;;;;;13.33;11.00;;;4.40;99.90;;;;;;5012797;28;20594;-74
2020/12/06 00:49:49;;;;;;;14.77;11.60;;;4.40;99.90;;;;;;5012858;28;20279;-74
2020/12/06 00:52:14;;;;;;;16.07;11.53;;;4.40;99.90;;;;;;5032292;28;20257;-74
2020/12/06 00:54:40;;;;;;;15.60;12.17;;;4.40;99.90;;;;;;5032165;28;20613;-74
2020/12/06 00:57:05;;;;;;;14.07;11.50;;;4.50;99.90;;;;;;5032064;28;20180;-74
2020/12/06 00:59:31;;;;;;;15.37;12.30;;;4.50;99.90;;;;;;5035771;28;20187;-76
2020/12/06 01:01:56;;;;;;;18.03;13.30;;;4.50;99.90;;;;;;5035618;28;20648;-75
2020/12/06 01:04:22;;;;;;;16.00;12.60;;;4.60;99.90;;;;;;5031536;28;20211;-75
2020/12/06 01:06:47;;;;;;;15.00;11.40;;;4.50;99.90;;;;;;5016548;28;20276;-73
2020/12/06 01:09:13;;;;;;;18.70;12.57;;;4.50;99.90;;;;;;5015893;28;20231;-73
2020/12/06 01:11:38;;;;;;;13.90;12.00;;;4.50;99.90;;;;;;5022709;28;20183;-73
2020/12/06 01:14:04;;;;;;;14.37;11.93;;;4.50;99.90;;;;;;5035951;28;20190;-73
2020/12/06 01:16:29;;;;;;;17.33;12.90;;;4.50;99.90;;;;;;5036252;28;20176;-73
2020/12/06 01:18:55;;;;;;;16.80;12.80;;;4.50;99.90;;;;;;5028041;28;20204;-73
2020/12/06 01:21:20;;;;;;;13.40;12.00;;;4.40;99.90;;;;;;5017047;28;20175;-74
2020/12/06 01:23:46;;;;;;;18.27;12.97;;;4.40;99.90;;;;;;5031622;28;20199;-74
2020/12/06 01:26:12;;;;;;;15.50;13.23;;;4.40;99.90;;;;;;5026118;28;20180;-74
2020/12/06 01:28:37;;;;;;;14.13;11.67;;;4.40;99.90;;;;;;5014955;28;20567;-75
2020/12/06 01:31:05;;;;;;;14.77;11.90;;;4.40;99.90;;;;;;5033048;28;20416;-74
2020/12/06 01:33:30;;;;;;;18.63;12.73;;;4.40;99.90;;;;;;5023539;28;20211;-74
2020/12/06 01:35:56;;;;;;;15.23;12.60;;;4.50;99.90;;;;;;5014760;28;20427;-74
2020/12/06 01:38:21;;;;;;;16.40;12.40;;;4.50;99.90;;;;;;5015620;28;20556;-74
2020/12/06 01:40:47;;;;;;;14.67;12.00;;;4.40;99.90;;;;;;5029298;28;20193;-74
2020/12/06 01:43:12;;;;;;;14.90;12.27;;;4.50;99.90;;;;;;5034552;28;20541;-74
2020/12/06 01:45:38;;;;;;;17.80;12.20;;;4.50;99.90;;;;;;5034678;28;20284;-74
2020/12/06 01:48:07;;;;;;;16.37;13.13;;;4.50;99.90;;;;;;5018845;28;20592;-74
2020/12/06 01:50:37;;;;;;;19.07;14.20;;;4.50;99.90;;;;;;5008568;28;20560;-74
2020/12/06 01:53:04;;;;;;;15.17;12.30;;;4.60;99.90;;;;;;5015463;28;20442;-74
2020/12/06 01:55:30;;;;;;;16.33;13.10;;;4.60;99.90;;;;;;5033707;28;20413;-74
2020/12/06 01:58:03;;;;;;;15.93;13.40;;;4.60;99.90;;;;;;5034687;28;20501;-74
2020/12/06 02:00:29;;;;;;;14.10;11.80;;;4.60;99.90;;;;;;5032218;28;20433;-74
2020/12/06 02:02:55;;;;;;;17.43;13.47;;;4.60;99.90;;;;;;5015435;28;20472;-74
2020/12/06 02:05:21;;;;;;;17.17;13.30;;;4.60;99.90;;;;;;5015675;28;20176;-74
2020/12/06 02:07:47;;;;;;;15.47;12.20;;;4.60;99.90;;;;;;5019303;28;20457;-74
2020/12/06 02:10:13;;;;;;;15.33;12.57;;;4.60;99.90;;;;;;5033995;28;20289;-74
2020/12/06 02:12:45;;;;;;;16.30;12.60;;;4.60;99.90;;;;;;5034384;28;20454;-74
2020/12/06 02:15:10;;;;;;;17.57;11.80;;;4.60;99.90;;;;;;5026903;28;20177;-74
2020/12/06 02:17:36;;;;;;;14.70;11.67;;;4.60;99.90;;;;;;5014966;28;20427;-74
2020/12/06 02:20:01;;;;;;;14.13;11.67;;;4.60;99.90;;;;;;5014859;28;20201;-74
2020/12/06 02:22:27;;;;;;;15.43;12.20;;;4.60;99.90;;;;;;5023988;28;20344;-74
2020/12/06 02:24:52;;;;;;;15.93;13.37;;;4.60;99.90;;;;;;5032802;28;20220;-75
2020/12/06 02:27:18;;;;;;;14.03;12.57;;;4.60;99.90;;;;;;5026149;28;20271;-74
2020/12/06 02:29:43;;;;;;;17.70;12.00;;;4.60;99.90;;;;;;5022858;28;20193;-74
2020/12/06 02:32:09;;;;;;;14.73;11.67;;;4.60;99.90;;;;;;5021429;28;20188;-74
2020/12/06 02:34:34;;;;;;;17.37;12.57;;;4.60;99.90;;;;;;5034114;28;20202;-74
2020/12/06 02:37:00;;;;;;;14.53;11.37;;;4.60;99.90;;;;;;5020829;28;20202;-74
2020/12/06 02:39:25;;;;;;;15.40;12.40;;;4.60;99.90;;;;;;5030127;28;20210;-74
2020/12/06 02:41:51;;;;;;;18.27;12.83;;;4.50;99.90;;;;;;5013421;28;20178;-74
2020/12/06 02:44:16;;;;;;;16.63;12.63;;;4.60;99.90;;;;;;5028709;28;20196;-74
2020/12/06 02:46:42;;;;;;;15.20;11.47;;;4.60;99.90;;;;;;5031481;28;20180;-74
2020/12/06 02:49:08;;;;;;;15.20;12.43;;;4.60;99.90;;;;;;5014142;28;20198;-74
2020/12/06 02:51:34;;;;;;;15.07;11.87;;;4.50;99.90;;;;;;5030441;28;20184;-74
2020/12/06 02:54:00;;;;;;;14.90;11.63;;;4.60;99.90;;;;;;5033762;28;20433;-74
2020/12/06 02:56:25;;;;;;;15.93;12.43;;;4.60;99.90;;;;;;5033339;28;20972;-74
2020/12/06 02:58:51;;;;;;;16.47;12.47;;;4.60;99.90;;;;;;5029192;28;20201;-75
2020/12/06 03:01:17;;;;;;;15.27;12.07;;;4.60;99.90;;;;;;5021337;28;20179;-74
2020/12/06 03:03:43;;;;;;;12.30;10.57;;;4.60;99.90;;;;;;5013982;28;20221;-74
2020/12/06 03:06:10;;;;;;;15.10;11.70;;;4.60;99.90;;;;;;5029789;28;20505;-73
2020/12/06 03:08:37;;;;;;;16.13;12.03;;;4.60;99.90;;;;;;5012307;28;20200;-74
2020/12/06 03:11:07;;;;;;;15.03;12.63;;;4.60;99.90;;;;;;5021943;28;20432;-74
2020/12/06 03:13:34;;;;;;;12.47;10.43;;;4.60;99.90;;;;;;5013969;28;20498;-74
2020/12/06 03:16:00;;;;;;;14.10;11.27;;;4.60;99.90;;;;;;5022764;28;20436;-74
2020/12/06 03:18:25;;;;;;;14.67;10.83;;;4.70;99.90;;;;;;5022466;28;20510;-74
2020/12/06 03:20:51;;;;;;;16.43;12.87;;;4.70;99.90;;;;;;5025170;28;20910;-75
2020/12/06 03:23:16;;;;;;;12.10;9.80;;;4.70;99.90;;;;;;5024492;28;20564;-74
2020/12/06 03:25:42;;;;;;;12.13;9.93;;;4.70;99.90;;;;;;5024621;28;20544;-75
2020/12/06 03:28:07;;;;;;;15.50;11.67;;;4.70;99.90;;;;;;5023239;28;20208;-74
2020/12/06 03:30:32;;;;;;;14.77;10.60;;;4.70;99.90;;;;;;5024401;28;20202;-75
2020/12/06 03:32:58;;;;;;;14.00;10.87;;;4.80;99.90;;;;;;5025418;28;20185;-74
2020/12/06 03:35:24;;;;;;;15.70;11.13;;;4.70;99.90;;;;;;5023733;28;20191;-74
2020/12/06 03:37:49;;;;;;;14.57;10.90;;;4.70;99.90;;;;;;5018902;28;20636;-74
2020/12/06 03:40:15;;;;;;;13.40;10.50;;;4.70;99.90;;;;;;5021740;28;20243;-75
2020/12/06 03:42:41;;;;;;;14.30;10.13;;;4.70;99.90;;;;;;5032656;28;20286;-74
2020/12/06 03:45:06;;;;;;;16.63;11.70;;;4.70;99.90;;;;;;5025213;28;20479;-74
2020/12/06 03:47:32;;;;;;;13.00;10.90;;;4.70;99.90;;;;;;5020543;28;20215;-74
2020/12/06 03:49:57;;;;;;;13.63;10.87;;;4.80;99.90;;;;;;5018005;28;20201;-74
2020/12/06 03:52:23;;;;;;;13.23;10.40;;;4.80;99.90;;;;;;5032234;28;20255;-74
2020/12/06 03:54:48;;;;;;;12.33;10.73;;;4.80;99.90;;;;;;5032805;28;20176;-74
2020/12/06 03:57:14;;;;;;;12.40;10.00;;;4.80;99.90;;;;;;5022814;28;20223;-74
2020/12/06 03:59:39;;;;;;;11.47;9.70;;;4.90;99.90;;;;;;5029151;28;20656;-74
2020/12/06 04:02:05;;;;;;;16.10;11.30;;;4.80;99.90;;;;;;5013256;28;20178;-74
2020/12/06 04:04:30;;;;;;;14.30;11.13;;;4.80;99.90;;;;;;5021213;28;20207;-74
2020/12/06 04:06:56;;;;;;;14.30;10.47;;;4.80;99.90;;;;;;5025344;28;20651;-74
2020/12/06 04:09:21;;;;;;;12.80;10.83;;;4.80;99.90;;;;;;5032250;28;20211;-74
2020/12/06 04:11:47;;;;;;;14.30;11.37;;;4.80;99.90;;;;;;5021338;28;20641;-74
2020/12/06 04:14:12;;;;;;;13.80;10.50;;;4.90;99.90;;;;;;5022414;28;20588;-74
2020/12/06 04:16:38;;;;;;;13.43;11.10;;;4.90;99.90;;;;;;5023488;28;20180;-74
2020/12/06 04:19:03;;;;;;;11.20;10.00;;;4.90;99.90;;;;;;5024716;28;20337;-74
2020/12/06 04:21:29;;;;;;;15.13;11.47;;;4.90;99.90;;;;;;5017103;28;20181;-74
2020/12/06 04:23:55;;;;;;;13.23;10.77;;;4.90;99.90;;;;;;5015126;28;20211;-74
2020/12/06 04:26:21;;;;;;;12.67;10.43;;;4.90;99.90;;;;;;5018802;28;20168;-74
2020/12/06 04:28:46;;;;;;;14.80;11.83;;;4.90;99.90;;;;;;5021689;28;20987;-74
2020/12/06 04:31:12;;;;;;;14.30;10.00;;;4.90;99.90;;;;;;5035505;28;20643;-74
2020/12/06 04:33:37;;;;;;;13.50;10.53;;;4.90;99.90;;;;;;5020295;28;20551;-74
2020/12/06 04:36:03;;;;;;;13.87;10.47;;;5.00;99.90;;;;;;5032976;28;20179;-74
2020/12/06 04:38:29;;;;;;;11.80;9.50;;;5.00;99.90;;;;;;5016583;28;20175;-74
2020/12/06 04:40:55;;;;;;;11.57;10.13;;;4.90;99.90;;;;;;5017952;28;20607;-74
2020/12/06 04:43:20;;;;;;;12.53;9.73;;;4.90;99.90;;;;;;5020647;28;20261;-74
2020/12/06 04:45:47;;;;;;;12.77;10.27;;;4.90;99.90;;;;;;5035784;28;20524;-74
2020/12/06 04:48:26;;;;;;;14.00;11.67;;;4.90;99.90;;;;;;5026808;28;20272;-74
2020/12/06 04:50:54;;;;;;;10.70;8.87;;;4.90;99.90;;;;;;5028064;28;20425;-74
2020/12/06 04:53:26;;;;;;;11.00;9.90;;;5.00;99.90;;;;;;5019926;28;20979;-74
2020/12/06 04:55:55;;;;;;;12.50;9.77;;;5.00;99.90;;;;;;5035863;28;20487;-75
2020/12/06 04:58:26;;;;;;;14.30;9.37;;;5.00;99.90;;;;;;5026770;28;20459;-74
2020/12/06 05:00:52;;;;;;;12.23;10.70;;;5.00;99.90;;;;;;5027683;28;20438;-74
2020/12/06 05:03:22;;;;;;;13.80;10.47;;;5.00;99.90;;;;;;5016245;28;20463;-74
2020/12/06 05:05:50;;;;;;;12.37;9.90;;;5.00;99.90;;;;;;5024394;28;20452;-74
2020/12/06 05:08:15;;;;;;;11.97;8.63;;;5.00;99.90;;;;;;5031514;28;20413;-76
2020/12/06 05:10:46;;;;;;;12.57;9.50;;;5.00;99.90;;;;;;5028650;28;20936;-74
2020/12/06 05:13:13;;;;;;;12.00;9.47;;;5.00;99.90;;;;;;5027118;28;20182;-74
2020/12/06 05:15:38;;;;;;;10.63;9.10;;;5.00;99.90;;;;;;5031815;28;20424;-74
2020/12/06 05:18:04;;;;;;;13.27;9.50;;;5.10;99.90;;;;;;5023254;28;20436;-74
2020/12/06 05:20:31;;;;;;;12.60;9.37;;;5.10;99.90;;;;;;5023271;28;20556;-74
2020/12/06 05:22:56;;;;;;;14.63;10.70;;;5.10;99.90;;;;;;5015174;28;20213;-75
2020/12/06 05:25:22;;;;;;;12.23;9.10;;;5.10;99.90;;;;;;5015623;28;20429;-74
2020/12/06 05:27:48;;;;;;;11.07;9.90;;;5.10;99.90;;;;;;5022564;28;20171;-74
2020/12/06 05:30:15;;;;;;;12.50;10.50;;;5.10;99.90;;;;;;5022253;28;20202;-74
2020/12/06 05:32:41;;;;;;;11.23;9.90;;;5.10;99.90;;;;;;5025757;28;20968;-74
2020/12/06 05:35:08;;;;;;;10.80;9.17;;;5.10;99.90;;;;;;5034546;28;20429;-74
2020/12/06 05:37:38;;;;;;;11.80;9.80;;;5.10;99.90;;;;;;5015665;28;20182;-75
2020/12/06 05:40:07;;;;;;;12.00;9.80;;;5.10;99.90;;;;;;5019561;28;20464;-74
2020/12/06 05:42:37;;;;;;;9.13;8.23;;;5.10;99.90;;;;;;5025182;28;20490;-74
2020/12/06 05:45:04;;;;;;;11.77;8.80;;;5.10;99.90;;;;;;5015391;28;20499;-74
2020/12/06 05:47:29;;;;;;;10.80;8.83;;;5.10;99.90;;;;;;5022431;28;20422;-75
2020/12/06 05:49:59;;;;;;;15.33;10.23;;;5.10;99.90;;;;;;5033591;28;20515;-75
2020/12/06 05:52:29;;;;;;;12.33;9.80;;;5.10;99.90;;;;;;5019619;28;20656;-74
2020/12/06 05:54:59;;;;;;;9.93;8.53;;;5.10;99.90;;;;;;5025163;28;20432;-73
2020/12/06 05:57:29;;;;;;;10.57;8.37;;;5.10;99.90;;;;;;5019579;28;20945;-75
2020/12/06 05:59:59;;;;;;;12.50;9.30;;;5.10;99.90;;;;;;5029305;28;20797;-74
2020/12/06 06:02:26;;;;;;;11.43;9.20;;;5.10;99.90;;;;;;5026830;28;20460;-74
2020/12/06 06:04:56;;;;;;;10.10;8.80;;;5.10;99.90;;;;;;5016986;28;20526;-74
2020/12/06 06:07:23;;;;;;;11.10;9.60;;;5.20;99.90;;;;;;5027006;28;20484;-74
2020/12/06 06:10:00;;;;;;;10.87;9.30;;;5.10;99.90;;;;;;5017453;28;21009;-74
2020/12/06 06:12:29;;;;;;;12.63;9.30;;;5.20;99.90;;;;;;5014478;28;20418;-74
2020/12/06 06:14:57;;;;;;;11.70;8.87;;;5.10;99.90;;;;;;5029001;28;20506;-74
2020/12/06 06:17:24;;;;;;;15.00;10.40;;;5.00;99.90;;;;;;5014179;28;20927;-74
2020/12/06 06:19:50;;;;;;;11.83;10.03;;;5.00;99.90;;;;;;5029381;28;20460;-74
2020/12/06 06:22:18;;;;;;;9.87;8.80;;;5.00;99.90;;;;;;5025043;28;20421;-74
2020/12/06 06:24:45;;;;;;;10.30;8.50;;;5.00;99.90;;;;;;5027092;28;20415;-74
2020/12/06 06:27:11;;;;;;;10.60;9.20;;;5.10;99.90;;;;;;5029971;28;20976;-75
2020/12/06 06:29:37;;;;;;;11.70;8.40;;;5.10;99.90;;;;;;5021976;28;20427;-74
2020/12/06 06:32:03;;;;;;;11.63;9.10;;;5.10;99.90;;;;;;5030138;28;20417;-74
2020/12/06 06:34:31;;;;;;;10.90;9.27;;;5.10;99.90;;;;;;5022220;28;20655;-75
2020/12/06 06:36:57;;;;;;;10.97;9.10;;;5.10;99.90;;;;;;5020813;28;20423;-75
2020/12/06 06:39:24;;;;;;;12.10;9.37;;;5.00;99.90;;;;;;5024702;28;20458;-73
2020/12/06 06:42:10;;;;;;;11.10;9.17;;;5.00;99.90;;;;;;5033691;28;20217;-74
2020/12/06 06:44:41;;;;;;;11.80;9.00;;;5.00;99.90;;;;;;5022185;28;20472;-75
2020/12/06 06:47:10;;;;;;;11.70;9.13;;;5.10;99.90;;;;;;5021235;28;20479;-74
2020/12/06 06:49:55;;;;;;;12.67;9.53;;;5.10;99.90;;;;;;5022442;28;20952;-75
2020/12/06 06:52:22;;;;;;;11.80;9.50;;;5.00;99.90;;;;;;5028454;28;21033;-75
2020/12/06 06:54:50;;;;;;;14.20;10.30;;;5.10;99.90;;;;;;5020536;28;20413;-74
2020/12/06 06:57:17;;;;;;;11.70;10.20;;;5.00;99.90;;;;;;5019530;28;20416;-75
2020/12/06 06:59:48;;;;;;;13.73;10.23;;;5.10;99.90;;;;;;5031609;28;20525;-74
2020/12/06 07:02:39;;;;;;;13.90;9.33;;;5.10;99.90;;;;;;5026330;28;20421;-75
2020/12/06 07:05:19;;;;;;;12.20;9.93;;;5.00;99.90;;;;;;5013905;28;20453;-75
2020/12/06 07:07:49;;;;;;;12.90;10.60;;;5.00;99.90;;;;;;5021899;28;20426;-75
2020/12/06 07:10:16;;;;;;;12.07;10.37;;;4.90;99.90;;;;;;5027065;28;20484;-75
2020/12/06 07:12:56;;;;;;;13.67;11.57;;;4.90;99.90;;;;;;5016401;28;20866;-73
2020/12/06 07:15:27;;;;;;;15.60;10.57;;;5.00;99.90;;;;;;5023216;28;20437;-73
2020/12/06 07:17:54;;;;;;;12.97;10.10;;;5.00;99.90;;;;;;5030585;28;20498;-75
2020/12/06 07:20:22;;;;;;;18.10;12.03;;;4.90;99.90;;;;;;5019389;28;20475;-75
2020/12/06 07:22:48;;;;;;;12.00;10.70;;;5.00;99.90;;;;;;5023754;28;20454;-74
2020/12/06 07:25:16;;;;;;;14.30;10.87;;;5.00;99.90;;;;;;5024465;28;20417;-74
2020/12/06 07:27:42;;;;;;;13.47;9.80;;;5.00;99.90;;;;;;5016781;28;20420;-74
2020/12/06 07:30:10;;;;;;;12.93;10.60;;;5.00;99.90;;;;;;5021863;28;20449;-74
2020/12/06 07:32:36;;;;;;;13.27;9.93;;;5.00;99.90;;;;;;5024866;28;20416;-74
2020/12/06 07:35:06;;;;;;;12.47;10.30;;;4.90;99.90;;;;;;5030202;28;20455;-74
2020/12/06 07:37:32;;;;;;;13.70;10.77;;;4.80;99.90;;;;;;5018939;28;20502;-74
2020/12/06 07:39:58;;;;;;;12.90;10.43;;;4.80;99.90;;;;;;5022159;28;20494;-74
2020/12/06 07:42:26;;;;;;;13.90;9.93;;;4.70;99.90;;;;;;5013607;28;20421;-73
2020/12/06 07:44:57;;;;;;;16.50;12.30;;;4.60;99.90;;;;;;5026847;28;20201;-73
2020/12/06 07:47:25;;;;;;;14.43;12.30;;;4.50;99.90;;;;;;5021101;28;20787;-74
2020/12/06 07:49:55;;;;;;;15.60;12.47;;;4.50;99.90;;;;;;5013344;28;20454;-73
2020/12/06 07:52:24;;;;;;;14.97;12.27;;;4.50;99.90;;;;;;5029018;28;20420;-72
2020/12/06 07:54:55;;;;;;;14.70;12.73;;;4.50;99.90;;;;;;5026309;28;20425;-72
2020/12/06 07:57:41;;;;;;;18.60;13.80;;;4.50;99.90;;;;;;5012544;28;20430;-72
2020/12/06 08:00:12;;;;;;;16.10;12.57;;;4.50;99.90;;;;;;5013350;28;20530;-72
2020/12/06 08:02:41;;;;;;;18.63;13.50;;;4.50;99.90;;;;;;5020867;28;20427;-73
2020/12/06 08:05:10;;;;;;;17.30;13.20;;;4.60;99.90;;;;;;5029941;28;20428;-72
2020/12/06 08:07:39;;;;;;;16.23;12.00;;;4.60;99.90;;;;;;5032751;28;20458;-71
2020/12/06 08:10:09;;;;;;;15.30;11.90;;;4.70;99.90;;;;;;5005566;28;20467;-71
2020/12/06 08:12:36;;;;;;;15.83;12.63;;;4.80;99.90;;;;;;5026259;28;20419;-71
2020/12/06 08:15:06;;;;;;;19.10;14.63;;;4.80;99.90;;;;;;5023071;28;20430;-71
2020/12/06 08:17:46;;;;;;;14.23;12.73;;;4.80;99.90;;;;;;5029265;28;20414;-72
2020/12/06 08:20:14;;;;;;;18.13;13.50;;;4.90;99.90;;;;;;5033117;28;20450;-72
2020/12/06 08:22:57;;;;;;;17.47;13.50;;;5.00;99.90;;;;;;5029646;28;20908;-72
2020/12/06 08:25:31;;;;;;;16.03;11.73;;;5.00;99.90;;;;;;5020661;28;20447;-72
2020/12/06 08:27:58;;;;;;;16.40;13.00;;;5.10;99.90;;;;;;5015286;28;20415;-72
2020/12/06 08:30:27;;;;;;;16.50;12.67;;;5.10;99.90;;;;;;5031028;28;20471;-72
2020/12/06 08:33:01;;;;;;;16.40;13.13;;;5.20;99.90;;;;;;5021833;28;20503;-72
2020/12/06 08:35:46;;;;;;;16.90;12.50;;;5.30;99.90;;;;;;5038334;28;20480;-72
2020/12/06 08:38:25;;;;;;;16.80;13.90;;;5.30;99.90;;;;;;5012135;28;20533;-72
2020/12/06 08:41:03;;;;;;;17.57;13.50;;;5.30;99.90;;;;;;5019919;28;20460;-72
2020/12/06 08:43:49;;;;;;;14.50;11.50;;;5.40;99.90;;;;;;5035322;28;20451;-72
2020/12/06 08:46:19;;;;;;;15.90;11.83;;;5.40;99.90;;;;;;5013258;28;20420;-73
2020/12/06 08:48:46;;;;;;;17.77;12.67;;;5.40;99.90;;;;;;5037527;28;20436;-73
2020/12/06 08:51:46;;;;;;;14.77;12.60;;;5.40;99.90;;;;;;5031310;28;20496;-74
2020/12/06 08:54:11;;;;;;;16.20;13.20;;;5.50;99.90;;;;;;4968841;28;20741;-74
2020/12/06 08:56:39;;;;;;;15.37;11.47;;;5.50;99.90;;;;;;4976447;28;20471;-74
2020/12/06 08:59:17;;;;;;;14.87;11.70;;;5.50;99.90;;;;;;4963386;28;20225;-74
2020/12/06 09:01:46;;;;;;;16.40;13.00;;;5.60;99.90;;;;;;4972246;28;20811;-73
2020/12/06 09:04:12;;;;;;;16.53;12.37;;;5.50;99.90;;;;;;4959894;28;20482;-74
2020/12/06 09:06:38;;;;;;;20.00;13.50;;;5.50;99.90;;;;;;4971020;28;20440;-73
2020/12/06 09:09:04;;;;;;;16.10;12.27;;;5.50;99.90;;;;;;4945872;28;20237;-73
2020/12/06 09:11:29;;;;;;;14.27;12.30;;;5.60;99.90;;;;;;4961450;28;20454;-73
2020/12/06 09:13:55;;;;;;;15.27;12.57;;;5.60;99.90;;;;;;4964853;28;20177;-74
2020/12/06 09:16:20;;;;;;;16.50;13.13;;;5.60;99.90;;;;;;4957073;28;20196;-74
2020/12/06 09:18:46;;;;;;;15.27;12.27;;;5.70;99.90;;;;;;4962154;28;20209;-75
2020/12/06 09:21:11;;;;;;;15.90;13.80;;;5.70;99.90;;;;;;4970937;28;20514;-75
2020/12/06 09:23:37;;;;;;;17.83;12.77;;;5.80;99.90;;;;;;4961549;28;20663;-74
2020/12/06 09:26:04;;;;;;;15.27;11.90;;;5.80;99.90;;;;;;4954887;28;20174;-74
2020/12/06 09:28:30;;;;;;;12.57;11.03;;;5.80;99.90;;;;;;4955993;28;20188;-76
2020/12/06 09:30:55;;;;;;;16.83;12.23;;;5.80;99.90;;;;;;5001776;28;20422;-74
2020/12/06 09:33:21;;;;;;;16.63;11.63;;;5.90;99.90;;;;;;5023817;28;20190;-73
2020/12/06 09:35:48;;;;;;;18.97;12.60;;;5.90;99.90;;;;;;5026733;28;20178;-73
2020/12/06 09:38:13;;;;;;;16.37;13.60;;;5.90;99.90;;;;;;5033898;28;20177;-74
2020/12/06 09:40:39;;;;;;;18.10;14.40;;;5.90;99.90;;;;;;5024202;28;20540;-75
2020/12/06 09:43:05;;;;;;;15.87;12.87;;;5.90;99.90;;;;;;5019002;28;20290;-74
2020/12/06 09:45:30;;;;;;;16.53;13.40;;;5.90;99.90;;;;;;5032317;28;20479;-75
2020/12/06 09:47:56;;;;;;;17.70;14.03;;;5.90;99.90;;;;;;5026092;28;20640;-73
2020/12/06 09:50:21;;;;;;;18.30;13.80;;;5.80;99.90;;;;;;5026955;28;20260;-74
2020/12/06 09:52:47;;;;;;;22.77;15.30;;;5.90;99.90;;;;;;5024449;28;20507;-74
2020/12/06 09:55:12;;;;;;;20.73;14.40;;;5.90;99.90;;;;;;5030339;28;20206;-75
2020/12/06 09:57:38;;;;;;;22.27;16.00;;;5.90;99.90;;;;;;5024061;28;20203;-75
2020/12/06 10:00:05;;;;;;;19.73;16.23;;;5.90;99.90;;;;;;5035199;28;20206;-75
2020/12/06 10:02:30;;;;;;;21.00;14.60;;;5.90;99.90;;;;;;5027888;28;20182;-74
2020/12/06 10:04:56;;;;;;;18.17;14.23;;;5.90;99.90;;;;;;5026360;28;20517;-74
2020/12/06 10:07:24;;;;;;;20.30;14.33;;;5.90;99.90;;;;;;5029386;28;20195;-73
2020/12/06 10:09:49;;;;;;;19.17;15.70;;;6.00;99.90;;;;;;5024796;28;20261;-75
2020/12/06 10:12:15;;;;;;;19.50;13.73;;;6.00;99.90;;;;;;5022531;28;20454;-75
2020/12/06 10:14:40;;;;;;;22.67;18.97;;;5.90;99.90;;;;;;5030680;28;20178;-73
2020/12/06 10:17:06;;;;;;;21.43;15.17;;;5.90;99.90;;;;;;5023587;28;20194;-74
2020/12/06 10:19:32;;;;;;;24.80;16.23;;;5.80;99.90;;;;;;5023175;28;20544;-74
2020/12/06 10:21:57;;;;;;;20.83;14.40;;;5.90;99.90;;;;;;5014872;28;20195;-75
2020/12/06 10:24:23;;;;;;;20.83;14.90;;;5.90;99.90;;;;;;5018608;28;20238;-75
2020/12/06 10:26:52;;;;;;;22.20;15.47;;;6.00;99.90;;;;;;5025789;28;20201;-75
2020/12/06 10:29:19;;;;;;;20.80;15.83;;;5.90;99.90;;;;;;5030383;28;20214;-74
2020/12/06 10:31:44;;;;;;;25.00;16.63;;;6.00;99.90;;;;;;5020471;28;20414;-74
2020/12/06 10:34:10;;;;;;;22.17;15.70;;;6.00;99.90;;;;;;5025474;28;20445;-74
2020/12/06 10:36:35;;;;;;;21.17;16.13;;;5.90;99.90;;;;;;5023302;28;20532;-73
2020/12/06 10:39:01;;;;;;;23.30;16.10;;;6.00;99.90;;;;;;5012152;28;20249;-74
2020/12/06 10:41:26;;;;;;;23.20;16.63;;;6.00;99.90;;;;;;5018297;28;20564;-73
2020/12/06 10:43:51;;;;;;;24.53;16.50;;;6.10;99.90;;;;;;5019319;28;20206;-73
2020/12/06 10:46:17;;;;;;;25.80;17.73;;;6.10;99.90;;;;;;5016811;28;20257;-74
2020/12/06 10:48:43;;;;;;;28.37;17.63;;;6.10;99.90;;;;;;5022023;28;20699;-73
2020/12/06 10:51:08;;;;;;;23.27;17.17;;;6.10;99.90;;;;;;5020778;28;20175;-73
2020/12/06 10:53:34;;;;;;;27.37;17.20;;;6.00;99.90;;;;;;5030936;28;20179;-73
2020/12/06 10:56:01;;;;;;;27.80;18.13;;;6.00;99.90;;;;;;5018754;28;20215;-72
2020/12/06 10:58:27;;;;;;;25.37;17.23;;;6.00;99.90;;;;;;5029032;28;20182;-72
2020/12/06 11:00:52;;;;;;;25.73;15.67;;;6.10;99.90;;;;;;5015080;28;20981;-72
2020/12/06 11:03:18;;;;;;;23.47;15.93;;;6.10;99.90;;;;;;5028757;28;20220;-72
2020/12/06 11:05:43;;;;;;;25.37;15.80;;;6.20;99.90;;;;;;5027394;28;20183;-72
2020/12/06 11:08:09;;;;;;;25.60;17.03;;;6.30;99.90;;;;;;5019288;28;20233;-74
2020/12/06 11:10:34;;;;;;;25.07;15.63;;;6.40;99.90;;;;;;5029426;28;20206;-73
2020/12/06 11:13:00;;;;;;;25.00;16.27;;;6.50;99.90;;;;;;5014586;28;20218;-74
2020/12/06 11:15:25;;;;;;;22.80;16.80;;;6.60;99.90;;;;;;5015074;28;20182;-74
2020/12/06 11:17:51;;;;;;;22.83;15.50;;;6.70;99.90;;;;;;5019273;28;20203;-73
2020/12/06 11:20:16;;;;;;;21.77;15.03;;;6.70;99.90;;;;;;5019701;28;20226;-73
2020/12/06 11:22:42;;;;;;;20.40;14.17;;;6.70;99.90;;;;;;5024787;28;20176;-73
2020/12/06 11:25:07;;;;;;;23.10;14.70;;;6.80;99.90;;;;;;5016756;28;20178;-74
2020/12/06 11:27:33;;;;;;;21.40;14.33;;;6.80;99.90;;;;;;5018166;28;20709;-73
2020/12/06 11:29:58;;;;;;;17.90;12.03;;;6.80;99.90;;;;;;5021980;28;20229;-72
2020/12/06 11:32:25;;;;;;;19.80;12.47;;;6.80;99.90;;;;;;5020017;28;20179;-72
2020/12/06 11:34:51;;;;;;;17.63;11.73;;;6.80;99.90;;;;;;5016680;28;20637;-72
2020/12/06 11:37:16;;;;;;;16.90;11.37;;;6.90;99.90;;;;;;5014145;28;20432;-73
2020/12/06 11:39:42;;;;;;;14.07;10.80;;;6.90;99.90;;;;;;5021020;28;20191;-73
2020/12/06 11:42:07;;;;;;;18.20;12.67;;;6.90;99.90;;;;;;5014629;28;20648;-72
2020/12/06 11:44:33;;;;;;;16.23;12.60;;;6.90;99.90;;;;;;5026968;28;20285;-72
2020/12/06 11:46:58;;;;;;;16.53;11.50;;;6.90;99.90;;;;;;5024661;28;20585;-73
2020/12/06 11:49:24;;;;;;;18.47;12.50;;;6.90;99.90;;;;;;5014420;28;20196;-72
2020/12/06 11:51:49;;;;;;;18.50;13.70;;;6.90;99.90;;;;;;5029210;28;20457;-73
2020/12/06 11:54:17;;;;;;;18.90;13.47;;;6.90;99.90;;;;;;5023689;28;20200;-73
2020/12/06 11:56:47;;;;;;;17.00;11.50;;;7.00;99.90;;;;;;5020043;28;20187;-72
2020/12/06 11:59:12;;;;;;;17.77;11.63;;;6.90;99.90;;;;;;4983122;28;20458;-74
2020/12/06 12:01:38;;;;;;;18.90;13.20;;;7.00;99.90;;;;;;5013020;28;20789;-72
2020/12/06 12:04:03;;;;;;;19.30;12.60;;;7.00;99.90;;;;;;5028191;28;20206;-73
2020/12/06 12:06:29;;;;;;;15.77;10.90;;;6.90;99.90;;;;;;5017476;28;20274;-74
2020/12/06 12:08:54;;;;;;;16.33;11.43;;;6.90;99.90;;;;;;5010852;28;20585;-73
2020/12/06 12:11:21;;;;;;;15.90;11.67;;;6.90;99.90;;;;;;5016100;28;20179;-73
2020/12/06 12:13:47;;;;;;;15.50;12.07;;;7.00;99.90;;;;;;5010549;28;21542;-73
2020/12/06 12:16:12;;;;;;;16.63;11.10;;;7.00;99.90;;;;;;5015237;28;20945;-73
2020/12/06 12:18:38;;;;;;;14.47;10.23;;;7.00;99.90;;;;;;5011434;28;20228;-73
2020/12/06 12:21:04;;;;;;;14.30;10.03;;;7.00;99.90;;;;;;5020399;28;20236;-73
2020/12/06 12:23:29;;;;;;;14.93;10.63;;;7.00;99.90;;;;;;5016231;28;20203;-73
2020/12/06 12:25:55;;;;;;;17.40;12.37;;;7.00;99.90;;;;;;5027589;28;20216;-73
2020/12/06 12:28:20;;;;;;;16.40;13.17;;;7.00;99.90;;;;;;5020581;28;20271;-73
2020/12/06 12:30:46;;;;;;;17.53;13.20;;;6.90;99.90;;;;;;5023800;28;20543;-73
2020/12/06 12:33:11;;;;;;;19.43;12.07;;;6.70;99.90;;;;;;4992186;28;20203;-73
2020/12/06 12:35:37;;;;;;;17.80;13.80;;;6.60;99.90;;;;;;5021191;28;20688;-74
2020/12/06 12:38:02;;;;;;;19.33;14.63;;;6.60;99.90;;;;;;5020965;28;20183;-74